Time;durP1;ratioP1;P1;durP2;ratioP2;P2;SDS_P1;SDS_P2;PMS_P1;PMS_P2;Temp;Humidity;BMP_temperature;BMP_pressure;BME280_temperature;BME280_humidity;BME280_pressure;Samples;Min_cycle;Max_cycle;Signal;HPM_P1;HPM_P2
2024/01/31 00:00:22;;;;;;;8.33;1.73;;;4.70;99.90;;;;;;5052525;28;20165;-84
2024/01/31 00:02:48;;;;;;;5.47;1.80;;;4.60;99.90;;;;;;5053354;28;20736;-84
2024/01/31 00:05:14;;;;;;;4.13;1.63;;;4.50;99.90;;;;;;5053008;28;20174;-85
2024/01/31 00:07:43;;;;;;;7.83;2.00;;;4.30;99.90;;;;;;5053082;28;20559;-83
2024/01/31 00:10:09;;;;;;;4.90;1.90;;;4.70;99.90;;;;;;5052589;28;20243;-83
2024/01/31 00:12:35;;;;;;;7.13;2.10;;;;;;;;;;5053496;28;20184;-83
2024/01/31 00:15:01;;;;;;;5.13;2.00;;;5.00;99.90;;;;;;5036111;28;20180;-83
2024/01/31 00:17:27;;;;;;;10.63;2.23;;;;;;;;;;5054107;28;20216;-83
2024/01/31 00:19:53;;;;;;;4.53;2.13;;;;;;;;;;5054084;28;20173;-83
2024/01/31 00:22:19;;;;;;;3.53;2.10;;;;;;;;;;5054476;28;20366;-83
2024/01/31 00:24:45;;;;;;;7.03;2.07;;;4.50;99.90;;;;;;5055331;28;20174;-83
2024/01/31 00:27:11;;;;;;;6.90;2.37;;;;;;;;;;5038574;28;20207;-83
2024/01/31 00:29:36;;;;;;;7.00;2.20;;;4.70;99.90;;;;;;5063137;28;20237;-82
2024/01/31 00:32:04;;;;;;;8.03;2.20;;;;;;;;;;5077927;28;20208;-81
2024/01/31 00:34:31;;;;;;;7.90;2.30;;;;;;;;;;5077943;28;20200;-82
2024/01/31 00:36:57;;;;;;;7.10;2.33;;;;;;;;;;5075797;28;20213;-79
2024/01/31 00:39:28;;;;;;;5.77;2.10;;;5.00;99.90;;;;;;5072508;28;20674;-82
2024/01/31 00:41:54;;;;;;;5.83;2.10;;;5.20;99.90;;;;;;5075982;28;20184;-82
2024/01/31 00:44:20;;;;;;;8.23;2.10;;;5.10;99.90;;;;;;5076959;28;20153;-83
2024/01/31 00:46:48;;;;;;;6.77;2.23;;;5.00;99.90;;;;;;5076881;28;20172;-82
2024/01/31 00:49:14;;;;;;;6.93;2.50;;;;;;;;;;5078394;28;20196;-83
2024/01/31 00:51:43;;;;;;;5.50;2.00;;;5.20;99.90;;;;;;5078387;28;20157;-85
2024/01/31 00:54:09;;;;;;;9.37;2.30;;;5.30;99.90;;;;;;5070941;28;20177;-84
2024/01/31 00:56:36;;;;;;;6.87;1.83;;;;;;;;;;5061998;28;20224;-84
2024/01/31 00:59:01;;;;;;;5.13;1.83;;;5.70;99.90;;;;;;5073168;28;20196;-84
2024/01/31 01:01:27;;;;;;;7.97;2.10;;;5.40;99.90;;;;;;5075789;28;20157;-83
2024/01/31 01:03:53;;;;;;;5.43;1.87;;;5.50;99.90;;;;;;5074979;28;20177;-84
2024/01/31 01:06:18;;;;;;;8.57;2.33;;;5.30;99.90;;;;;;5074656;28;20177;-83
2024/01/31 01:08:44;;;;;;;4.60;1.90;;;5.20;99.90;;;;;;5075745;28;20177;-84
2024/01/31 01:11:10;;;;;;;7.47;2.40;;;5.50;99.90;;;;;;5067865;28;20223;-85
2024/01/31 01:13:35;;;;;;;7.20;1.87;;;5.60;99.90;;;;;;5052551;28;20268;-84
2024/01/31 01:16:01;;;;;;;4.47;1.80;;;5.40;99.90;;;;;;5052301;28;20678;-84
2024/01/31 01:18:27;;;;;;;10.70;2.37;;;5.40;99.90;;;;;;5052371;28;20706;-84
2024/01/31 01:20:53;;;;;;;7.33;2.30;;;;;;;;;;5052303;28;20784;-84
2024/01/31 01:23:18;;;;;;;4.03;1.83;;;5.30;99.90;;;;;;5052615;28;20173;-85
2024/01/31 01:25:44;;;;;;;8.20;2.27;;;;;;;;;;5052485;28;20673;-84
2024/01/31 01:28:10;;;;;;;7.33;2.77;;;5.70;99.90;;;;;;5034849;28;20177;-84
2024/01/31 01:30:36;;;;;;;6.00;1.90;;;;;;;;;;5052558;28;20180;-84
2024/01/31 01:33:02;;;;;;;7.03;2.30;;;6.00;99.90;;;;;;5052646;28;20624;-84
2024/01/31 01:35:28;;;;;;;4.80;1.87;;;6.00;99.90;;;;;;5029767;28;20224;-83
2024/01/31 01:37:53;;;;;;;10.60;2.37;;;5.80;99.90;;;;;;5032423;28;20676;-84
2024/01/31 01:40:19;;;;;;;7.70;1.97;;;5.20;99.90;;;;;;5032338;28;20224;-86
2024/01/31 01:42:45;;;;;;;7.27;2.20;;;6.10;99.90;;;;;;5032074;28;20549;-86
2024/01/31 01:45:11;;;;;;;8.63;2.40;;;5.90;99.90;;;;;;5032064;28;20186;-83
2024/01/31 01:47:40;;;;;;;4.83;1.77;;;5.90;99.90;;;;;;5036581;28;20205;-84
2024/01/31 01:50:08;;;;;;;5.43;1.90;;;5.60;99.90;;;;;;5051918;28;20197;-84
2024/01/31 01:52:34;;;;;;;7.43;2.23;;;5.60;99.90;;;;;;5051930;28;20164;-83
2024/01/31 01:55:03;;;;;;;7.20;2.00;;;5.40;99.90;;;;;;5051987;28;20177;-83
2024/01/31 01:57:33;;;;;;;12.13;2.30;;;5.50;99.90;;;;;;5051626;28;20258;-82
2024/01/31 01:59:59;;;;;;;9.00;1.90;;;5.30;99.90;;;;;;5051855;28;20166;-83
2024/01/31 02:02:27;;;;;;;12.57;2.43;;;5.30;99.90;;;;;;5052211;28;20177;-82
2024/01/31 02:04:53;;;;;;;5.77;2.17;;;5.20;99.90;;;;;;5051817;28;20694;-82
2024/01/31 02:07:24;;;;;;;9.17;2.30;;;5.10;99.90;;;;;;5051589;28;20256;-82
2024/01/31 02:09:52;;;;;;;5.93;1.97;;;5.20;99.90;;;;;;5049959;28;20169;-82
2024/01/31 02:12:17;;;;;;;8.60;2.30;;;4.60;99.90;;;;;;5039718;28;20193;-83
2024/01/31 02:14:45;;;;;;;9.10;2.60;;;5.10;99.90;;;;;;5051139;28;20235;-82
2024/01/31 02:17:11;;;;;;;6.90;2.43;;;;;;;;;;5038698;28;20300;-83
2024/01/31 02:19:37;;;;;;;12.10;2.83;;;5.10;99.90;;;;;;5031290;28;20699;-82
2024/01/31 02:22:05;;;;;;;4.73;2.20;;;4.90;99.90;;;;;;5030907;28;20229;-81
2024/01/31 02:24:31;;;;;;;6.40;2.50;;;4.80;99.90;;;;;;5038801;28;20254;-82
2024/01/31 02:26:57;;;;;;;15.97;2.20;;;4.80;99.90;;;;;;5050722;28;20173;-82
2024/01/31 02:29:22;;;;;;;8.80;2.63;;;4.80;99.90;;;;;;5050780;28;20174;-82
2024/01/31 02:31:48;;;;;;;6.93;2.43;;;5.10;99.90;;;;;;5050929;28;20173;-83
2024/01/31 02:34:14;;;;;;;11.53;2.60;;;;;;;;;;5050524;28;20640;-82
2024/01/31 02:36:40;;;;;;;10.47;2.73;;;5.10;99.90;;;;;;5050575;28;20253;-79
2024/01/31 02:39:06;;;;;;;6.97;2.30;;;5.10;99.90;;;;;;5050740;28;20169;-82
2024/01/31 02:41:31;;;;;;;9.40;2.80;;;4.80;99.90;;;;;;5050653;28;20258;-81
2024/01/31 02:43:57;;;;;;;6.27;2.33;;;4.80;99.90;;;;;;5050675;28;20250;-82
2024/01/31 02:46:23;;;;;;;7.03;2.30;;;;;;;;;;5050504;28;20780;-83
2024/01/31 02:48:49;;;;;;;5.30;2.30;;;;;;;;;;5032622;28;20177;-82
2024/01/31 02:51:15;;;;;;;6.73;2.43;;;4.60;99.90;;;;;;5050450;28;20300;-81
2024/01/31 02:53:41;;;;;;;9.30;2.80;;;;;;;;;;5050535;28;20248;-81
2024/01/31 02:56:09;;;;;;;9.53;3.10;;;4.50;99.90;;;;;;5050315;28;20204;-81
2024/01/31 02:58:38;;;;;;;9.63;2.57;;;4.40;99.90;;;;;;5032635;28;20181;-82
2024/01/31 03:01:07;;;;;;;9.03;2.70;;;4.20;99.90;;;;;;5053872;28;20170;-81
2024/01/31 03:03:32;;;;;;;10.27;2.90;;;4.10;99.90;;;;;;5054237;28;20189;-83
2024/01/31 03:05:58;;;;;;;4.20;2.20;;;4.30;99.90;;;;;;5054045;28;20168;-81
2024/01/31 03:08:24;;;;;;;3.20;2.10;;;4.10;99.90;;;;;;5054017;28;20165;-84
2024/01/31 03:10:49;;;;;;;7.70;2.77;;;4.20;99.90;;;;;;5053750;28;20180;-83
2024/01/31 03:13:15;;;;;;;7.03;2.70;;;3.60;99.90;;;;;;5054066;28;20358;-83
2024/01/31 03:15:41;;;;;;;6.50;2.73;;;3.80;99.90;;;;;;5053796;28;20169;-83
2024/01/31 03:18:06;;;;;;;8.00;3.67;;;3.90;99.90;;;;;;5053987;28;20269;-82
2024/01/31 03:20:35;;;;;;;7.17;3.20;;;3.90;99.90;;;;;;5053715;28;20207;-82
2024/01/31 03:23:01;;;;;;;6.33;2.83;;;;;;;;;;5053623;28;20520;-80
2024/01/31 03:25:28;;;;;;;5.97;3.10;;;;;;;;;;5053673;28;20695;-82
2024/01/31 03:27:53;;;;;;;13.53;3.30;;;3.90;99.90;;;;;;5035775;28;20255;-82
2024/01/31 03:30:19;;;;;;;15.33;3.70;;;;;;;;;;5053635;28;20576;-82
2024/01/31 03:32:46;;;;;;;7.00;3.40;;;3.60;99.90;;;;;;5053434;28;20322;-82
2024/01/31 03:35:12;;;;;;;13.63;3.23;;;;;;;;;;5035225;28;20177;-82
2024/01/31 03:37:38;;;;;;;8.97;3.13;;;;;;;;;;5053062;28;20213;-82
2024/01/31 03:40:05;;;;;;;11.97;3.30;;;3.70;99.90;;;;;;5053647;28;20184;-82
2024/01/31 03:42:31;;;;;;;9.60;3.33;;;;;;;;;;5053287;28;20181;-82
2024/01/31 03:44:57;;;;;;;6.87;3.00;;;3.60;99.90;;;;;;5053080;28;20177;-82
2024/01/31 03:47:23;;;;;;;7.47;3.30;;;3.30;99.90;;;;;;5053463;28;20529;-83
2024/01/31 03:49:51;;;;;;;6.37;3.10;;;3.30;99.90;;;;;;5035994;28;20567;-83
2024/01/31 03:52:17;;;;;;;9.27;3.20;;;3.30;99.90;;;;;;5053224;28;20177;-83
2024/01/31 03:54:43;;;;;;;7.83;3.17;;;3.50;99.90;;;;;;5053659;28;20179;-82
2024/01/31 03:57:09;;;;;;;9.00;3.10;;;;;;;;;;5053247;28;20671;-82
2024/01/31 03:59:36;;;;;;;8.30;3.13;;;3.20;99.90;;;;;;5053322;28;20169;-83
2024/01/31 04:02:02;;;;;;;7.00;3.00;;;;;;;;;;5053770;28;20682;-84
2024/01/31 04:04:28;;;;;;;5.90;2.97;;;;;;;;;;5053649;28;20166;-84
2024/01/31 04:06:54;;;;;;;6.17;2.53;;;3.20;99.90;;;;;;5061257;28;20196;-83
2024/01/31 04:09:20;;;;;;;7.47;3.00;;;3.60;99.90;;;;;;5072084;28;20184;-83
2024/01/31 04:11:45;;;;;;;4.77;2.93;;;3.30;99.90;;;;;;5067049;28;20189;-82
2024/01/31 04:14:11;;;;;;;12.20;3.40;;;3.40;99.90;;;;;;5065744;28;20200;-81
2024/01/31 04:16:37;;;;;;;5.37;2.90;;;3.50;99.90;;;;;;5063998;28;20605;-83
2024/01/31 04:19:02;;;;;;;8.47;2.90;;;3.40;99.90;;;;;;5066816;28;20181;-83
2024/01/31 04:21:28;;;;;;;5.73;2.60;;;3.40;99.90;;;;;;5053634;28;20221;-83
2024/01/31 04:23:54;;;;;;;7.93;3.10;;;;;;;;;;5052611;28;20643;-83
2024/01/31 04:26:20;;;;;;;10.07;3.10;;;3.30;99.90;;;;;;5052807;28;20172;-83
2024/01/31 04:28:45;;;;;;;5.87;2.93;;;3.50;99.90;;;;;;5052465;28;20177;-82
2024/01/31 04:31:13;;;;;;;7.63;2.83;;;3.70;99.90;;;;;;5052522;28;20173;-83
2024/01/31 04:33:39;;;;;;;10.73;2.80;;;3.70;99.90;;;;;;5052445;28;20172;-83
2024/01/31 04:36:05;;;;;;;7.67;2.93;;;3.70;99.90;;;;;;5034313;28;20204;-83
2024/01/31 04:38:31;;;;;;;11.47;2.83;;;2.70;99.90;;;;;;5052437;28;20184;-82
2024/01/31 04:40:57;;;;;;;5.57;2.70;;;4.20;99.90;;;;;;5052666;28;20177;-82
2024/01/31 04:43:22;;;;;;;6.93;2.63;;;4.00;99.90;;;;;;5052220;28;20244;-83
2024/01/31 04:45:48;;;;;;;8.23;2.70;;;3.90;99.90;;;;;;5052196;28;20173;-83
2024/01/31 04:48:14;;;;;;;6.37;2.83;;;4.30;99.90;;;;;;5052163;28;20169;-82
2024/01/31 04:50:40;;;;;;;8.30;2.17;;;;;;;;;;5052044;28;20184;-82
2024/01/31 04:53:06;;;;;;;7.50;2.73;;;;;;;;;;5051788;28;20177;-82
2024/01/31 04:55:32;;;;;;;8.50;2.83;;;;;;;;;;5051809;28;20181;-83
2024/01/31 04:57:58;;;;;;;8.27;2.50;;;4.20;99.90;;;;;;5051296;28;20283;-82
2024/01/31 05:00:25;;;;;;;5.20;2.30;;;4.40;99.90;;;;;;5046088;28;20655;-86
2024/01/31 05:02:51;;;;;;;15.90;2.50;;;4.50;99.90;;;;;;5051379;28;20231;-87
2024/01/31 05:05:19;;;;;;;7.27;2.40;;;;;;;;;;5051327;28;20181;-86
2024/01/31 05:07:45;;;;;;;6.90;2.13;;;;;;;;;;5051588;28;20268;-86
2024/01/31 05:10:12;;;;;;;6.47;2.00;;;;;;;;;;5051735;28;20199;-85
2024/01/31 05:12:38;;;;;;;5.33;1.80;;;4.50;99.90;;;;;;5051796;28;20177;-85
2024/01/31 05:15:05;;;;;;;7.60;1.87;;;4.20;99.90;;;;;;5051628;28;20702;-84
2024/01/31 05:17:31;;;;;;;7.67;2.00;;;;;;;;;;5051279;28;20320;-84
2024/01/31 05:19:57;;;;;;;5.43;2.37;;;4.30;99.90;;;;;;5033517;28;20227;-84
2024/01/31 05:22:23;;;;;;;11.50;2.10;;;;;;;;;;5050867;28;20594;-84
2024/01/31 05:24:48;;;;;;;5.33;1.90;;;4.00;99.90;;;;;;5051407;28;20173;-82
2024/01/31 05:27:14;;;;;;;10.20;2.20;;;4.10;99.90;;;;;;5051495;28;20177;-85
2024/01/31 05:29:40;;;;;;;9.87;1.70;;;3.90;99.90;;;;;;5051473;28;20191;-84
2024/01/31 05:32:06;;;;;;;3.73;1.70;;;4.20;99.90;;;;;;5051431;28;20169;-84
2024/01/31 05:34:31;;;;;;;7.70;1.87;;;4.30;99.90;;;;;;5051311;28;20181;-85
2024/01/31 05:36:57;;;;;;;9.90;4.17;;;4.40;99.90;;;;;;5051776;28;20209;-84
2024/01/31 05:39:23;;;;;;;5.20;1.63;;;4.30;99.90;;;;;;5051769;28;20172;-85
2024/01/31 05:41:48;;;;;;;9.00;2.20;;;4.70;99.90;;;;;;5051484;28;20251;-82
2024/01/31 05:44:14;;;;;;;12.87;2.53;;;4.40;99.90;;;;;;5050986;28;20165;-82
2024/01/31 05:46:40;;;;;;;9.77;2.40;;;4.60;99.90;;;;;;5051289;28;20541;-83
2024/01/31 05:49:06;;;;;;;8.07;2.73;;;;;;;;;;5051088;28;20185;-83
2024/01/31 05:51:32;;;;;;;8.10;2.07;;;4.50;99.90;;;;;;5051579;28;20255;-83
2024/01/31 05:53:57;;;;;;;6.27;1.80;;;4.60;99.90;;;;;;5051234;28;20165;-83
2024/01/31 05:56:23;;;;;;;6.40;2.50;;;4.70;99.90;;;;;;5051071;28;20209;-83
2024/01/31 05:58:49;;;;;;;11.13;2.00;;;4.60;99.90;;;;;;5051185;28;20181;-83
2024/01/31 06:01:15;;;;;;;6.13;2.33;;;;;;;;;;5051228;28;20176;-83
2024/01/31 06:03:41;;;;;;;7.37;2.03;;;;;;;;;;5050992;28;20584;-83
2024/01/31 06:06:07;;;;;;;6.60;1.70;;;4.90;99.90;;;;;;5050829;28;20169;-83
2024/01/31 06:08:33;;;;;;;8.20;1.60;;;;;;;;;;5051214;28;20173;-83
2024/01/31 06:11:08;;;;;;;9.07;2.40;;;4.90;99.90;;;;;;5051282;28;20272;-83
2024/01/31 06:13:34;;;;;;;13.37;2.30;;;4.90;99.90;;;;;;5050676;28;20184;-82
2024/01/31 06:16:00;;;;;;;10.47;2.30;;;4.90;99.90;;;;;;5043450;28;20272;-81
2024/01/31 06:18:28;;;;;;;8.37;2.20;;;;;;;;;;5050603;28;20691;-82
2024/01/31 06:20:53;;;;;;;10.57;1.97;;;5.00;99.90;;;;;;5051028;28;20225;-83
2024/01/31 06:23:19;;;;;;;6.70;2.27;;;5.00;99.90;;;;;;5051164;28;20185;-82
2024/01/31 06:25:46;;;;;;;8.00;1.80;;;;;;;;;;5050754;28;20207;-84
2024/01/31 06:28:12;;;;;;;8.93;1.77;;;;;;;;;;5051003;28;20184;-83
2024/01/31 06:30:43;;;;;;;12.30;1.87;;;5.10;99.90;;;;;;5050928;28;20537;-82
2024/01/31 06:33:08;;;;;;;9.97;1.77;;;5.50;99.90;;;;;;5050932;28;20294;-82
2024/01/31 06:35:35;;;;;;;8.53;1.83;;;;;;;;;;5053607;28;20539;-83
2024/01/31 06:38:01;;;;;;;8.43;1.50;;;5.20;99.90;;;;;;5054512;28;20216;-82
2024/01/31 06:40:27;;;;;;;5.53;1.40;;;5.20;99.90;;;;;;5054619;28;20644;-83
2024/01/31 06:42:53;;;;;;;6.43;1.70;;;5.20;99.90;;;;;;5054660;28;20211;-83
2024/01/31 06:45:18;;;;;;;6.47;1.43;;;5.30;99.90;;;;;;5054660;28;20200;-83
2024/01/31 06:47:44;;;;;;;6.93;1.60;;;5.40;99.90;;;;;;5054805;28;20174;-84
2024/01/31 06:50:11;;;;;;;10.57;1.87;;;5.20;99.90;;;;;;5054523;28;20611;-84
2024/01/31 06:52:37;;;;;;;8.67;1.93;;;;;;;;;;5054829;28;20165;-84
2024/01/31 06:55:03;;;;;;;6.53;2.00;;;5.40;99.90;;;;;;5054846;28;20173;-85
2024/01/31 06:57:30;;;;;;;5.37;1.60;;;;;;;;;;5054882;28;20270;-84
2024/01/31 06:59:56;;;;;;;7.60;2.13;;;5.30;99.90;;;;;;5054882;28;20169;-84
2024/01/31 07:02:21;;;;;;;5.03;1.63;;;5.30;99.90;;;;;;5055082;28;20184;-83
2024/01/31 07:04:47;;;;;;;7.60;1.80;;;5.10;99.90;;;;;;5037114;28;20201;-85
2024/01/31 07:07:13;;;;;;;6.13;1.70;;;5.40;99.90;;;;;;5037469;28;20181;-85
2024/01/31 07:09:39;;;;;;;5.80;1.60;;;5.40;99.90;;;;;;5054863;28;20223;-85
2024/01/31 07:12:05;;;;;;;8.67;2.20;;;5.40;99.90;;;;;;5055091;28;20177;-86
2024/01/31 07:14:31;;;;;;;5.33;1.80;;;;;;;;;;5054881;28;20174;-85
2024/01/31 07:16:57;;;;;;;5.47;1.57;;;5.50;99.90;;;;;;5063225;28;20236;-83
2024/01/31 07:19:23;;;;;;;5.97;1.40;;;;;;;;;;5049116;28;20181;-82
2024/01/31 07:21:48;;;;;;;7.97;1.80;;;5.50;99.90;;;;;;5038181;28;20213;-82
2024/01/31 07:24:15;;;;;;;7.43;1.83;;;;;;;;;;5036008;28;20226;-82
2024/01/31 07:26:41;;;;;;;9.73;1.30;;;;;;;;;;5020932;28;20183;-80
2024/01/31 07:29:10;;;;;;;8.40;1.77;;;5.70;99.90;;;;;;5020832;28;20200;-83
2024/01/31 07:31:35;;;;;;;9.67;1.90;;;5.70;99.90;;;;;;5013347;28;20254;-83
2024/01/31 07:34:01;;;;;;;7.87;2.03;;;;;;;;;;5014443;28;20262;-82
2024/01/31 07:36:27;;;;;;;8.10;1.40;;;5.70;99.90;;;;;;5014376;28;20202;-81
2024/01/31 07:38:53;;;;;;;12.40;1.80;;;;;;;;;;5013622;28;20237;-84
2024/01/31 07:41:19;;;;;;;6.80;1.50;;;5.60;99.90;;;;;;5015928;28;20675;-85
2024/01/31 07:43:45;;;;;;;4.17;1.17;;;;;;;;;;5017889;28;20178;-85
2024/01/31 07:46:11;;;;;;;6.73;1.67;;;;;;;;;;5026096;28;20186;-83
2024/01/31 07:48:37;;;;;;;7.07;1.23;;;6.00;99.90;;;;;;5018046;28;20182;-83
2024/01/31 07:51:04;;;;;;;6.13;1.30;;;6.10;99.90;;;;;;5019634;28;20178;-83
2024/01/31 07:53:30;;;;;;;7.47;1.50;;;;;;;;;;5014331;28;20177;-84
2024/01/31 07:55:56;;;;;;;12.13;1.60;;;;;;;;;;5014457;28;20171;-84
2024/01/31 07:58:22;;;;;;;8.70;1.73;;;;;;;;;;5017697;28;20608;-83
2024/01/31 08:00:48;;;;;;;6.03;1.43;;;6.40;99.90;;;;;;5022942;28;20233;-86
2024/01/31 08:03:14;;;;;;;8.67;1.40;;;;;;;;;;5029449;28;20175;-84
2024/01/31 08:05:40;;;;;;;4.63;0.97;;;;;;;;;;5030750;28;20201;-85
2024/01/31 08:08:06;;;;;;;5.13;1.20;;;6.20;99.90;;;;;;5029904;28;20233;-85
2024/01/31 08:10:32;;;;;;;11.43;1.60;;;;;;;;;;5027284;28;20637;-86
2024/01/31 08:12:58;;;;;;;4.83;1.50;;;;;;;;;;5008248;28;20179;-85
2024/01/31 08:15:24;;;;;;;4.70;1.20;;;;;;;;;;5009860;28;20215;-86
2024/01/31 08:17:50;;;;;;;7.60;1.33;;;6.30;99.90;;;;;;5014982;28;20268;-82
2024/01/31 08:20:16;;;;;;;8.60;1.40;;;6.30;99.90;;;;;;5013948;28;20257;-82
2024/01/31 08:22:41;;;;;;;5.77;1.43;;;6.30;99.90;;;;;;5049194;28;20220;-82
2024/01/31 08:25:08;;;;;;;10.27;1.63;;;5.00;99.90;;;;;;5052429;28;20169;-80
2024/01/31 08:27:34;;;;;;;6.73;1.53;;;;;;;;;;5054222;28;20181;-81
2024/01/31 08:30:00;;;;;;;9.93;1.87;;;;;;;;;;5054683;28;20322;-82
2024/01/31 08:32:26;;;;;;;7.03;1.20;;;6.40;99.90;;;;;;5053956;28;20644;-85
2024/01/31 08:34:51;;;;;;;8.80;1.07;;;6.30;99.90;;;;;;5057421;28;20207;-83
2024/01/31 08:37:18;;;;;;;8.57;1.30;;;6.50;99.90;;;;;;5053787;28;20280;-84
2024/01/31 08:39:44;;;;;;;13.90;1.70;;;;;;;;;;5054060;28;20169;-86
2024/01/31 08:42:10;;;;;;;8.30;1.50;;;;;;;;;;5056198;28;20265;-83
2024/01/31 08:44:36;;;;;;;15.87;1.33;;;;;;;;;;5051578;28;20173;-83
2024/01/31 08:47:02;;;;;;;5.20;1.40;;;;;;;;;;5052656;28;20260;-86
2024/01/31 08:49:28;;;;;;;9.10;1.73;;;6.50;99.90;;;;;;5052309;28;20219;-82
2024/01/31 08:51:54;;;;;;;5.30;1.27;;;;;;;;;;5052246;28;20165;-84
2024/01/31 08:54:20;;;;;;;5.73;1.37;;;6.70;99.90;;;;;;5044303;28;20181;-84
2024/01/31 08:56:46;;;;;;;6.13;0.90;;;6.80;99.90;;;;;;5015317;28;20304;-84
2024/01/31 08:59:12;;;;;;;5.20;1.40;;;;;;;;;;5032091;28;20182;-82
2024/01/31 09:01:46;;;;;;;9.40;1.30;;;7.10;99.90;;;;;;5032565;28;20738;-86
2024/01/31 09:04:12;;;;;;;9.90;1.53;;;7.00;99.90;;;;;;5044899;28;20275;-86
2024/01/31 09:06:40;;;;;;;9.13;1.00;;;7.10;99.90;;;;;;5038060;28;20174;-82
2024/01/31 09:09:07;;;;;;;10.07;1.13;;;6.70;99.90;;;;;;5032174;28;20240;-83
2024/01/31 09:11:33;;;;;;;6.40;1.30;;;;;;;;;;5032097;28;20201;-83
2024/01/31 09:13:59;;;;;;;7.07;1.40;;;7.00;99.90;;;;;;5032706;28;20632;-82
2024/01/31 09:16:24;;;;;;;10.97;1.03;;;7.00;99.90;;;;;;5031789;28;20205;-84
2024/01/31 09:18:50;;;;;;;6.27;1.07;;;7.20;99.90;;;;;;5014439;28;20220;-84
2024/01/31 09:21:27;;;;;;;7.83;1.23;;;7.20;99.90;;;;;;5014254;28;20252;-84
2024/01/31 09:23:53;;;;;;;8.77;1.03;;;7.20;99.90;;;;;;5031996;28;20188;-85
2024/01/31 09:26:19;;;;;;;17.77;1.90;;;7.30;99.90;;;;;;5036678;28;20182;-84
2024/01/31 09:28:45;;;;;;;6.43;1.20;;;;;;;;;;5051775;28;20649;-83
2024/01/31 09:31:11;;;;;;;12.50;1.50;;;;;;;;;;5052299;28;20176;-85
2024/01/31 09:33:37;;;;;;;4.93;0.90;;;;;;;;;;5045315;28;20173;-80
2024/01/31 09:36:03;;;;;;;9.43;1.50;;;7.90;99.90;;;;;;5034518;28;20238;-80
2024/01/31 09:38:29;;;;;;;6.93;1.47;;;;;;;;;;5032419;28;20186;-79
2024/01/31 09:40:55;;;;;;;6.73;1.23;;;7.60;99.90;;;;;;5032928;28;20178;-80
2024/01/31 09:43:21;;;;;;;5.93;1.10;;;7.60;99.90;;;;;;5034745;28;20207;-79
2024/01/31 09:45:49;;;;;;;5.80;1.00;;;7.70;99.90;;;;;;5018628;28;20220;-80
2024/01/31 09:48:17;;;;;;;5.43;0.80;;;8.00;99.90;;;;;;5027326;28;20286;-80
2024/01/31 09:50:43;;;;;;;9.90;1.47;;;7.80;99.90;;;;;;5056068;28;20212;-82
2024/01/31 09:53:11;;;;;;;6.87;0.90;;;8.00;99.90;;;;;;5073455;28;20169;-81
2024/01/31 09:55:37;;;;;;;7.80;1.20;;;;;;;;;;5071711;28;20181;-79
2024/01/31 09:58:03;;;;;;;6.63;1.00;;;8.30;99.90;;;;;;5063746;28;20319;-81
2024/01/31 10:00:29;;;;;;;6.30;1.10;;;7.90;99.90;;;;;;5065082;28;20170;-82
2024/01/31 10:02:55;;;;;;;3.23;0.77;;;8.30;99.90;;;;;;5052277;28;20333;-78
2024/01/31 10:05:21;;;;;;;7.10;1.77;;;8.30;99.90;;;;;;5070912;28;20177;-79
2024/01/31 10:07:47;;;;;;;4.50;1.03;;;;;;;;;;5071725;28;20170;-78
2024/01/31 10:10:13;;;;;;;5.33;1.30;;;;;;;;;;5060326;28;20237;-82
2024/01/31 10:12:39;;;;;;;8.53;1.27;;;8.10;99.90;;;;;;5045325;28;20190;-80
2024/01/31 10:15:09;;;;;;;5.63;1.20;;;8.20;99.90;;;;;;5037595;28;20224;-79
2024/01/31 10:17:35;;;;;;;5.23;1.17;;;8.00;99.90;;;;;;5042429;28;20694;-81
2024/01/31 10:20:06;;;;;;;5.70;0.93;;;;;;;;;;5037290;28;20641;-83
2024/01/31 10:22:34;;;;;;;6.30;1.00;;;7.90;99.90;;;;;;5041604;28;20268;-85
2024/01/31 10:25:00;;;;;;;10.60;1.40;;;8.20;99.90;;;;;;5054745;28;20256;-81
2024/01/31 10:27:26;;;;;;;6.27;1.20;;;8.50;99.90;;;;;;5054416;28;20185;-82
2024/01/31 10:29:53;;;;;;;7.77;1.43;;;8.60;99.90;;;;;;5056966;28;20174;-81
2024/01/31 10:32:20;;;;;;;6.77;1.20;;;8.60;99.90;;;;;;5056539;28;20173;-81
2024/01/31 10:34:47;;;;;;;8.00;1.00;;;;;;;;;;5039347;28;20293;-81
2024/01/31 10:37:14;;;;;;;4.17;1.27;;;8.60;99.90;;;;;;5058782;28;20284;-80
2024/01/31 10:39:40;;;;;;;6.90;1.53;;;8.50;99.90;;;;;;5037675;28;20253;-79
2024/01/31 10:42:06;;;;;;;7.53;1.37;;;;;;;;;;5054645;28;20231;-81
2024/01/31 10:44:37;;;;;;;10.40;1.40;;;8.60;99.90;;;;;;5036581;28;20597;-79
2024/01/31 10:47:04;;;;;;;8.87;1.47;;;8.90;99.90;;;;;;5049093;28;20185;-81
2024/01/31 10:49:29;;;;;;;9.63;1.30;;;8.60;99.90;;;;;;5048588;28;20179;-79
2024/01/31 10:51:58;;;;;;;6.10;1.10;;;8.90;99.90;;;;;;5040353;28;20425;-81
2024/01/31 10:54:30;;;;;;;6.80;1.43;;;8.80;99.90;;;;;;5034739;28;20178;-83
2024/01/31 10:56:57;;;;;;;8.93;1.67;;;8.90;99.90;;;;;;5035542;28;20205;-82
2024/01/31 10:59:23;;;;;;;10.23;1.70;;;;;;;;;;5039740;28;20260;-80
2024/01/31 11:01:55;;;;;;;7.47;1.33;;;8.80;99.90;;;;;;5023466;28;20174;-78
2024/01/31 11:04:24;;;;;;;4.70;0.93;;;9.10;99.90;;;;;;5034056;28;20645;-79
2024/01/31 11:06:50;;;;;;;8.00;1.60;;;8.90;99.90;;;;;;5034557;28;20247;-79
2024/01/31 11:09:25;;;;;;;4.53;1.30;;;9.00;99.90;;;;;;5035670;28;20196;-81
2024/01/31 11:12:05;;;;;;;3.63;1.23;;;9.00;99.90;;;;;;5033592;28;20211;-78
2024/01/31 11:14:32;;;;;;;9.77;1.43;;;9.00;99.90;;;;;;5054355;28;20169;-80
2024/01/31 11:17:09;;;;;;;9.80;1.50;;;8.90;99.90;;;;;;5034494;28;20209;-80
2024/01/31 11:19:52;;;;;;;5.60;1.27;;;9.00;99.90;;;;;;5053832;28;20172;-80
2024/01/31 11:22:21;;;;;;;5.80;1.23;;;9.10;99.90;;;;;;5052233;28;20225;-79
2024/01/31 11:24:51;;;;;;;9.57;1.73;;;9.10;99.90;;;;;;5033866;28;20190;-79
2024/01/31 11:27:18;;;;;;;5.87;1.40;;;9.10;99.90;;;;;;5054109;28;20173;-79
2024/01/31 11:29:48;;;;;;;8.37;1.33;;;9.10;99.90;;;;;;5051493;28;20548;-79
2024/01/31 11:32:15;;;;;;;6.90;1.40;;;;;;;;;;5034318;28;20248;-78
2024/01/31 11:34:41;;;;;;;6.63;1.30;;;;;;;;;;5035496;28;20170;-78
2024/01/31 11:37:07;;;;;;;10.70;1.63;;;;;;;;;;5050273;28;20263;-79
2024/01/31 11:39:33;;;;;;;6.13;1.60;;;;;;;;;;5052093;28;20272;-79
2024/01/31 11:41:59;;;;;;;12.20;1.50;;;9.00;99.90;;;;;;5052181;28;20644;-79
2024/01/31 11:44:26;;;;;;;8.43;1.83;;;9.10;99.90;;;;;;5053341;28;20176;-79
2024/01/31 11:46:52;;;;;;;4.60;1.37;;;9.10;99.90;;;;;;5053002;28;20173;-78
2024/01/31 11:49:18;;;;;;;13.90;1.93;;;;;;;;;;5053394;28;20518;-78
2024/01/31 11:51:44;;;;;;;11.23;1.90;;;;;;;;;;5053184;28;20195;-78
2024/01/31 11:54:10;;;;;;;6.17;1.47;;;9.20;99.90;;;;;;5053232;28;20179;-78
2024/01/31 11:56:36;;;;;;;17.23;2.27;;;9.20;99.90;;;;;;5052847;28;20193;-78
2024/01/31 11:59:03;;;;;;;7.90;1.70;;;8.20;99.90;;;;;;5052787;28;20184;-79
2024/01/31 12:01:31;;;;;;;6.93;1.53;;;9.50;99.90;;;;;;5053013;28;20329;-78
2024/01/31 12:03:56;;;;;;;4.63;1.57;;;9.60;99.90;;;;;;5035037;28;20180;-78
2024/01/31 12:06:22;;;;;;;6.17;1.67;;;9.50;99.90;;;;;;5052755;28;20170;-81
2024/01/31 12:08:49;;;;;;;10.20;1.73;;;9.50;99.90;;;;;;5052504;28;20319;-79
2024/01/31 12:11:16;;;;;;;4.90;1.90;;;9.60;99.90;;;;;;5048604;28;20178;-79
2024/01/31 12:13:43;;;;;;;5.27;1.90;;;9.50;99.90;;;;;;5015164;28;20188;-79
2024/01/31 12:16:09;;;;;;;9.43;1.80;;;;;;;;;;5032781;28;20206;-79
2024/01/31 12:18:35;;;;;;;7.57;2.10;;;;;;;;;;5032576;28;20178;-79
2024/01/31 12:21:06;;;;;;;9.50;1.97;;;8.90;99.90;;;;;;5032633;28;20222;-79
2024/01/31 12:23:32;;;;;;;2.80;1.40;;;;;;;;;;5015427;28;20264;-79
2024/01/31 12:25:58;;;;;;;5.63;1.70;;;9.00;99.90;;;;;;5014770;28;20539;-75
2024/01/31 12:28:24;;;;;;;4.17;1.93;;;9.40;99.90;;;;;;5014858;28;20170;-77
2024/01/31 12:30:54;;;;;;;6.50;1.97;;;;;;;;;;5032304;28;20201;-76
2024/01/31 12:33:20;;;;;;;7.23;2.30;;;9.40;99.90;;;;;;5013625;28;20633;-76
2024/01/31 12:35:46;;;;;;;12.73;2.67;;;8.40;99.90;;;;;;5032371;28;20197;-75
2024/01/31 12:38:15;;;;;;;11.13;2.30;;;;;;;;;;5032210;28;20209;-75
2024/01/31 12:40:41;;;;;;;2.83;1.70;;;;;;;;;;5032339;28;20200;-75
2024/01/31 12:43:07;;;;;;;5.70;1.87;;;9.60;99.90;;;;;;5014397;28;20204;-75
2024/01/31 12:45:33;;;;;;;9.67;2.27;;;10.10;99.90;;;;;;5032223;28;20257;-76
2024/01/31 12:48:01;;;;;;;9.20;2.33;;;10.00;99.90;;;;;;5032154;28;20170;-78
2024/01/31 12:50:27;;;;;;;14.70;2.87;;;10.40;99.90;;;;;;5032220;28;20625;-77
2024/01/31 12:52:59;;;;;;;9.40;2.57;;;;;;;;;;5068547;28;20531;-77
2024/01/31 12:55:25;;;;;;;13.70;2.80;;;10.50;99.90;;;;;;5068643;28;20168;-78
2024/01/31 12:57:51;;;;;;;6.90;2.23;;;10.30;99.90;;;;;;5067507;28;20171;-75
2024/01/31 13:00:17;;;;;;;14.73;2.30;;;10.30;99.90;;;;;;5068595;28;20230;-79
2024/01/31 13:02:43;;;;;;;5.80;2.23;;;;;;;;;;5068165;28;20231;-80
2024/01/31 13:05:08;;;;;;;9.87;2.03;;;10.30;99.90;;;;;;5068516;28;20169;-78
2024/01/31 13:07:34;;;;;;;8.43;2.17;;;10.40;99.90;;;;;;5067989;28;20589;-76
2024/01/31 13:10:00;;;;;;;7.30;2.03;;;;;;;;;;5066243;28;20200;-77
2024/01/31 13:12:26;;;;;;;8.27;2.37;;;;;;;;;;5067827;28;20204;-76
2024/01/31 13:14:52;;;;;;;5.43;1.80;;;10.80;99.90;;;;;;5069324;28;20208;-77
2024/01/31 13:17:18;;;;;;;12.40;2.17;;;;;;;;;;5076498;28;20180;-78
2024/01/31 13:19:44;;;;;;;6.67;1.87;;;12.00;99.90;;;;;;5068265;28;20259;-78